THY2BP LTCD-LTFM

Flight info

Callsign THY2BP
Flight time N/A
Altitude 36000
Route EZN UA4 TIMOP UT97 KANQO
Aircraft A320/M-SDE3FGHIRWY/LB1

Departure

Time 2026-04-22 16:34
Airport Erzincan Airport (LTCD)

Arrival

Time N/A
Airport İstanbul Airport (LTFM)
Time Latitude Longitude Altitude Speed Heading
2026-04-22 16:05 39.71663 39.52113 3790 ft 0 kts 21°
2026-04-22 16:24 39.71661 39.52112 3790 ft 2 kts 21°
2026-04-22 16:24 39.71630 39.52097 3796 ft 2 kts 21°
2026-04-22 16:24 39.71615 39.52089 3796 ft 2 kts 21°
2026-04-22 16:25 39.71599 39.52081 3796 ft 2 kts 33°
2026-04-22 16:25 39.71592 39.52050 3796 ft 2 kts 109°
2026-04-22 16:25 39.71597 39.52033 3795 ft 1 kts 118°
2026-04-22 16:26 39.71597 39.52035 3795 ft 1 kts 118°
2026-04-22 16:26 39.71595 39.52038 3794 ft 0 kts 118°
2026-04-22 16:28 39.71589 39.52056 3794 ft 6 kts 115°
2026-04-22 16:29 39.71571 39.52101 3793 ft 10 kts 130°
2026-04-22 16:29 39.71511 39.52103 3793 ft 9 kts 199°
2026-04-22 16:29 39.71446 39.52074 3793 ft 11 kts 199°
2026-04-22 16:29 39.71369 39.52039 3793 ft 12 kts 199°
2026-04-22 16:30 39.71294 39.52055 3793 ft 12 kts 116°
2026-04-22 16:30 39.71264 39.52159 3794 ft 13 kts 110°
2026-04-22 16:30 39.71232 39.52270 3795 ft 13 kts 110°
2026-04-22 16:30 39.71201 39.52379 3795 ft 13 kts 110°
2026-04-22 16:31 39.71162 39.52518 3796 ft 22 kts 109°
2026-04-22 16:31 39.71093 39.52736 3796 ft 27 kts 109°
2026-04-22 16:31 39.71024 39.52975 3794 ft 29 kts 111°
2026-04-22 16:31 39.70945 39.53225 3793 ft 31 kts 110°
2026-04-22 16:32 39.70872 39.53487 3794 ft 31 kts 112°
2026-04-22 16:32 39.70796 39.53756 3794 ft 32 kts 109°
2026-04-22 16:32 39.70714 39.54020 3795 ft 28 kts 110°
2026-04-22 16:32 39.70673 39.54232 3792 ft 15 kts 73°
2026-04-22 16:33 39.70653 39.54330 3791 ft 11 kts 199°
2026-04-22 16:33 39.70644 39.54255 3792 ft 9 kts 289°
2026-04-22 16:33 39.70689 39.54091 3795 ft 46 kts 289°
2026-04-22 16:33 39.70875 39.53444 3793 ft 106 kts 292°
2026-04-22 16:34 39.71195 39.52336 3806 ft 152 kts 287°
2026-04-22 16:34 39.71647 39.51022 4175 ft 163 kts 296°
2026-04-22 16:34 39.72200 39.49727 4711 ft 166 kts 299°
2026-04-22 16:34 39.72814 39.48405 5009 ft 178 kts 300°
2026-04-22 16:35 39.73487 39.46974 5213 ft 193 kts 299°
2026-04-22 16:35 39.74217 39.45425 5386 ft 209 kts 299°
2026-04-22 16:35 39.75001 39.43751 5591 ft 224 kts 299°
2026-04-22 16:35 39.75837 39.41961 5775 ft 240 kts 299°
2026-04-22 16:36 39.76732 39.40035 6002 ft 254 kts 300°
2026-04-22 16:36 39.77665 39.38020 6236 ft 268 kts 299°
2026-04-22 16:36 39.78648 39.35896 6619 ft 276 kts 299°
2026-04-22 16:36 39.79643 39.33746 7120 ft 277 kts 300°
2026-04-22 16:37 39.80636 39.31599 7630 ft 277 kts 299°
2026-04-22 16:37 39.81636 39.29450 8131 ft 279 kts 299°
2026-04-22 16:37 39.82649 39.27273 8870 ft 281 kts 299°
2026-04-22 16:37 39.83645 39.25124 9761 ft 281 kts 299°
2026-04-22 16:38 39.84660 39.22924 10360 ft 290 kts 299°
2026-04-22 16:38 39.85724 39.20608 10723 ft 307 kts 299°
2026-04-22 16:38 39.86738 39.18096 11098 ft 320 kts 287°
2026-04-22 16:38 39.87081 39.15240 11740 ft 322 kts 267°
2026-04-22 16:39 39.86904 39.12316 12414 ft 326 kts 265°
2026-04-22 16:39 39.86945 39.09360 13123 ft 329 kts 277°
2026-04-22 16:39 39.87489 39.06454 13848 ft 333 kts 289°
2026-04-22 16:39 39.88431 39.03695 14470 ft 336 kts 294°
2026-04-22 16:40 39.89423 39.00914 15118 ft 338 kts 294°
2026-04-22 16:40 39.90412 38.98117 15749 ft 340 kts 294°
2026-04-22 16:40 39.92398 38.92471 17002 ft 345 kts 294°
2026-04-22 16:41 39.93202 38.89529 17632 ft 346 kts 283°
2026-04-22 16:41 39.93511 38.86409 18243 ft 349 kts 271°
2026-04-22 16:41 39.93366 38.83247 18784 ft 352 kts 266°
2026-04-22 16:41 39.93145 38.80051 19335 ft 355 kts 266°
2026-04-22 16:42 39.92931 38.76877 19884 ft 358 kts 266°
2026-04-22 16:42 39.92711 38.73597 20438 ft 360 kts 266°
2026-04-22 16:42 39.92493 38.70368 20951 ft 363 kts 266°
2026-04-22 16:42 39.92273 38.67079 21471 ft 366 kts 266°
2026-04-22 16:43 39.92050 38.63762 22000 ft 369 kts 267°
2026-04-22 16:43 39.91824 38.60424 22526 ft 372 kts 267°
2026-04-22 16:43 39.91594 38.57057 23056 ft 374 kts 267°
2026-04-22 16:43 39.91359 38.53651 23560 ft 377 kts 267°
2026-04-22 16:44 39.91123 38.50231 23983 ft 380 kts 267°
2026-04-22 16:44 39.90886 38.46794 24402 ft 382 kts 267°
2026-04-22 16:44 39.90647 38.43343 24821 ft 384 kts 267°
2026-04-22 16:44 39.90406 38.39866 25227 ft 386 kts 267°
2026-04-22 16:45 39.90163 38.36374 25639 ft 387 kts 267°
2026-04-22 16:45 39.89917 38.32870 26032 ft 389 kts 267°
2026-04-22 16:45 39.89673 38.29396 26425 ft 391 kts 267°
2026-04-22 16:45 39.89419 38.25810 26819 ft 393 kts 267°
2026-04-22 16:46 39.89165 38.22258 27201 ft 395 kts 267°
2026-04-22 16:46 39.88910 38.18735 27559 ft 397 kts 267°
2026-04-22 16:46 39.88651 38.15148 27933 ft 399 kts 267°
2026-04-22 16:46 39.88391 38.11549 28306 ft 400 kts 267°
2026-04-22 16:47 39.88128 38.07934 28666 ft 402 kts 267°
2026-04-22 16:47 39.87861 38.04305 29011 ft 404 kts 267°
2026-04-22 16:47 39.87592 38.00661 29355 ft 405 kts 267°
2026-04-22 16:47 39.87323 37.96997 29708 ft 407 kts 267°
2026-04-22 16:48 39.87056 37.93320 30037 ft 409 kts 267°
2026-04-22 16:48 39.86787 37.89625 30316 ft 411 kts 267°
2026-04-22 16:48 39.86516 37.85916 30600 ft 412 kts 267°
2026-04-22 16:48 39.86245 37.82203 30984 ft 411 kts 267°
2026-04-22 16:49 39.85974 37.78509 31387 ft 410 kts 267°
2026-04-22 16:49 39.85700 37.74821 31798 ft 409 kts 266°
2026-04-22 16:49 39.85424 37.71184 32202 ft 408 kts 266°
2026-04-22 16:49 39.85146 37.67520 32606 ft 407 kts 266°
2026-04-22 16:50 39.84870 37.63864 33008 ft 406 kts 266°
2026-04-22 16:50 39.84593 37.60204 33406 ft 405 kts 266°
2026-04-22 16:50 39.84316 37.56547 33822 ft 404 kts 266°
2026-04-22 16:50 39.84040 37.52915 34164 ft 403 kts 266°
2026-04-22 16:51 39.83759 37.49290 34479 ft 402 kts 266°
2026-04-22 16:51 39.83477 37.45669 34778 ft 402 kts 266°
2026-04-22 16:51 39.83196 37.42057 35061 ft 401 kts 266°
2026-04-22 16:51 39.82914 37.38451 35354 ft 401 kts 266°
2026-04-22 16:52 39.82630 37.34841 35640 ft 400 kts 265°
2026-04-22 16:52 39.82347 37.31286 35861 ft 401 kts 265°
2026-04-22 16:52 39.82055 37.27629 35924 ft 402 kts 265°
2026-04-22 16:53 39.81479 37.20407 35941 ft 401 kts 265°
2026-04-22 16:53 39.80904 37.13240 35953 ft 401 kts 265°
2026-04-22 16:54 39.80314 37.06033 35965 ft 400 kts 265°
2026-04-22 16:54 39.79719 36.98837 35976 ft 400 kts 265°
2026-04-22 16:55 39.79142 36.91660 35976 ft 399 kts 268°
2026-04-22 16:55 39.79614 36.84539 35974 ft 397 kts 281°
2026-04-22 16:56 39.80591 36.77474 35981 ft 396 kts 280°
2026-04-22 16:56 39.81532 36.70451 35969 ft 395 kts 280°
2026-04-22 16:57 39.82471 36.63408 35956 ft 395 kts 280°
2026-04-22 16:57 39.83402 36.56418 35942 ft 394 kts 280°
2026-04-22 16:58 39.84189 36.50542 35929 ft 394 kts 280°
2026-04-22 16:58 39.85278 36.42386 35914 ft 393 kts 280°
2026-04-22 16:59 39.86209 36.35364 35911 ft 393 kts 280°
2026-04-22 16:59 39.87216 36.28367 35907 ft 393 kts 281°
2026-04-22 17:00 39.88226 36.21386 35904 ft 393 kts 280°
2026-04-22 17:00 39.89602 36.10907 35902 ft 393 kts 280°
2026-04-22 17:01 39.90520 36.03887 35904 ft 393 kts 280°
2026-04-22 17:01 39.91438 35.96868 35898 ft 393 kts 280°
2026-04-22 17:02 39.92348 35.89846 35893 ft 393 kts 280°
2026-04-22 17:02 39.93253 35.82859 35884 ft 393 kts 280°
2026-04-22 17:03 39.94160 35.75834 35867 ft 393 kts 280°
2026-04-22 17:03 39.95061 35.68786 35857 ft 393 kts 279°
2026-04-22 17:04 39.95958 35.61766 35839 ft 393 kts 279°
2026-04-22 17:04 39.96854 35.54779 35833 ft 393 kts 279°
2026-04-22 17:05 39.97747 35.47741 35824 ft 393 kts 279°
2026-04-22 17:05 39.98627 35.40688 35822 ft 394 kts 279°
2026-04-22 17:06 39.99850 35.33767 35816 ft 394 kts 289°
2026-04-22 17:06 40.01752 35.27042 35816 ft 394 kts 289°
2026-04-22 17:07 40.03634 35.20332 35818 ft 394 kts 289°
2026-04-22 17:07 40.05517 35.13601 35820 ft 394 kts 289°
2026-04-22 17:08 40.07071 35.08018 35821 ft 394 kts 289°
2026-04-22 17:08 40.09244 35.00203 35822 ft 394 kts 289°
2026-04-22 17:09 40.11113 34.93472 35828 ft 393 kts 289°
2026-04-22 17:09 40.12974 34.86758 35832 ft 393 kts 289°
2026-04-22 17:10 40.14826 34.80031 35836 ft 393 kts 289°
2026-04-22 17:10 40.16673 34.73310 35835 ft 393 kts 289°
2026-04-22 17:11 40.18509 34.66589 35842 ft 392 kts 288°
2026-04-22 17:11 40.20334 34.59915 35843 ft 392 kts 288°
2026-04-22 17:12 40.22175 34.53210 35845 ft 391 kts 289°
2026-04-22 17:12 40.24016 34.46499 35839 ft 391 kts 288°
2026-04-22 17:13 40.25837 34.39784 35848 ft 391 kts 288°
2026-04-22 17:13 40.27647 34.33065 35849 ft 391 kts 288°
2026-04-22 17:14 40.29145 34.27485 35849 ft 391 kts 288°
2026-04-22 17:14 40.31262 34.19632 35851 ft 391 kts 288°
2026-04-22 17:15 40.32764 34.14045 35857 ft 390 kts 288°
2026-04-22 17:15 40.34839 34.06306 35857 ft 390 kts 288°
2026-04-22 17:16 40.36636 33.99586 35868 ft 390 kts 288°
2026-04-22 17:16 40.38128 33.93997 35871 ft 390 kts 288°
2026-04-22 17:17 40.39914 33.87280 35879 ft 390 kts 288°
2026-04-22 17:17 40.41694 33.80554 35886 ft 390 kts 288°
2026-04-22 17:18 40.43470 33.73839 35897 ft 389 kts 288°
2026-04-22 17:18 40.45857 33.67506 35909 ft 393 kts 301°
2026-04-22 17:19 40.52014 33.55614 35941 ft 393 kts 301°
2026-04-22 17:20 40.58126 33.43675 35975 ft 393 kts 301°
2026-04-22 17:21 40.62714 33.34724 36001 ft 393 kts 301°
2026-04-22 17:22 40.67287 33.25776 36026 ft 392 kts 300°
2026-04-22 17:23 40.71818 33.16845 36048 ft 392 kts 300°
2026-04-22 17:23 40.75901 33.07567 36052 ft 389 kts 294°
2026-04-22 17:24 40.78318 33.01175 36068 ft 389 kts 294°
2026-04-22 17:24 40.80727 32.94788 36070 ft 389 kts 294°
2026-04-22 17:25 40.83131 32.88391 36079 ft 388 kts 294°
2026-04-22 17:25 40.85521 32.82004 36082 ft 388 kts 294°
2026-04-22 17:26 40.87913 32.75598 36086 ft 388 kts 294°
2026-04-22 17:26 40.90307 32.69197 36090 ft 388 kts 294°
2026-04-22 17:27 40.92696 32.62797 36095 ft 388 kts 293°
2026-04-22 17:27 40.95073 32.56393 36100 ft 388 kts 293°
2026-04-22 17:28 40.97433 32.50025 36100 ft 387 kts 293°
2026-04-22 17:28 40.99805 32.43621 36103 ft 388 kts 293°
2026-04-22 17:29 41.02168 32.37199 36106 ft 387 kts 293°
2026-04-22 17:29 41.04533 32.30780 36106 ft 387 kts 293°
2026-04-22 17:30 41.06892 32.24366 36108 ft 387 kts 293°
2026-04-22 17:30 41.09234 32.17985 36108 ft 386 kts 293°
2026-04-22 17:31 41.11583 32.11558 36114 ft 386 kts 293°
2026-04-22 17:31 41.13397 32.04929 36107 ft 382 kts 278°
2026-04-22 17:32 41.13958 31.97929 36104 ft 382 kts 275°
2026-04-22 17:32 41.14482 31.90924 36104 ft 381 kts 275°
2026-04-22 17:33 41.15005 31.83979 36109 ft 380 kts 275°
2026-04-22 17:33 41.15528 31.76999 36103 ft 380 kts 275°
2026-04-22 17:34 41.16043 31.69982 36108 ft 379 kts 275°
2026-04-22 17:34 41.16554 31.63015 36165 ft 378 kts 274°
2026-04-22 17:35 41.17045 31.56260 36082 ft 369 kts 274°
2026-04-22 17:35 41.17528 31.49468 36078 ft 370 kts 274°
2026-04-22 17:36 41.18006 31.42677 35946 ft 372 kts 274°
2026-04-22 17:36 41.18247 31.39266 35557 ft 367 kts 274°
2026-04-22 17:36 41.18485 31.35920 35172 ft 362 kts 274°
2026-04-22 17:37 41.18717 31.32621 34786 ft 357 kts 274°
2026-04-22 17:37 41.18942 31.29363 34399 ft 352 kts 274°
2026-04-22 17:37 41.19164 31.26154 34011 ft 347 kts 275°
2026-04-22 17:37 41.19383 31.22983 33584 ft 342 kts 275°
2026-04-22 17:38 41.19596 31.19879 33216 ft 335 kts 274°
2026-04-22 17:38 41.19806 31.16823 32841 ft 329 kts 274°
2026-04-22 17:38 41.20013 31.13821 32479 ft 323 kts 274°
2026-04-22 17:38 41.20213 31.10875 32120 ft 318 kts 274°
2026-04-22 17:39 41.20407 31.07958 31765 ft 313 kts 274°
2026-04-22 17:39 41.20594 31.05132 31426 ft 309 kts 274°
2026-04-22 17:39 41.20975 30.99508 30758 ft 303 kts 274°
2026-04-22 17:40 41.21162 30.96737 30431 ft 303 kts 274°
2026-04-22 17:40 41.21352 30.93859 30088 ft 320 kts 273°
2026-04-22 17:40 41.21546 30.90916 29717 ft 320 kts 273°
2026-04-22 17:40 41.21741 30.87972 29389 ft 319 kts 273°
2026-04-22 17:41 41.21932 30.85045 29050 ft 318 kts 273°
2026-04-22 17:41 41.22120 30.82126 28728 ft 317 kts 273°
2026-04-22 17:41 41.22308 30.79214 28408 ft 315 kts 272°
2026-04-22 17:41 41.22406 30.76319 28088 ft 313 kts 266°
2026-04-22 17:42 41.22095 30.73474 27730 ft 311 kts 257°
2026-04-22 17:42 41.21605 30.70679 27375 ft 310 kts 258°
2026-04-22 17:42 41.21125 30.67902 27008 ft 308 kts 258°
2026-04-22 17:42 41.20780 30.65106 26651 ft 307 kts 270°
2026-04-22 17:43 41.21168 30.62318 26318 ft 309 kts 278°
2026-04-22 17:43 41.21226 30.59517 25951 ft 303 kts 257°
2026-04-22 17:43 41.20387 30.56963 25585 ft 306 kts 237°
2026-04-22 17:43 41.18777 30.55064 25212 ft 319 kts 216°
2026-04-22 17:44 41.16656 30.54146 24850 ft 337 kts 194°
2026-04-22 17:44 41.14263 30.54123 24480 ft 345 kts 187°